createdAt,value
2022-09-21T00:01:16.758Z,9.67
2022-09-21T00:03:38.835Z,10.17
2022-09-21T00:06:03.013Z,10.03
2022-09-21T00:08:25.524Z,10.90
2022-09-21T00:10:50.666Z,12.23
2022-09-21T00:13:13.316Z,10.20
2022-09-21T00:15:34.469Z,11.60
2022-09-21T00:17:56.797Z,10.30
2022-09-21T00:20:17.824Z,12.47
2022-09-21T00:22:39.190Z,10.13
2022-09-21T00:25:03.651Z,9.63
2022-09-21T00:27:29.964Z,9.43
2022-09-21T00:29:51.007Z,11.07
2022-09-21T00:32:12.348Z,8.83
2022-09-21T00:34:33.829Z,10.00
2022-09-21T00:36:55.036Z,9.57
2022-09-21T00:39:16.382Z,9.20
2022-09-21T00:41:39.076Z,8.50
2022-09-21T00:44:19.101Z,8.63
2022-09-21T00:46:41.184Z,8.93
2022-09-21T00:49:02.558Z,11.43
2022-09-21T00:51:23.875Z,9.37
2022-09-21T00:53:45.572Z,10.63
2022-09-21T00:56:07.816Z,9.93
2022-09-21T00:58:32.499Z,12.47
2022-09-21T01:00:53.848Z,10.40
2022-09-21T01:03:15.123Z,10.40
2022-09-21T01:05:36.552Z,9.97
2022-09-21T01:07:58.344Z,11.70
2022-09-21T01:10:20.371Z,10.57
2022-09-21T01:12:47.539Z,9.53
2022-09-21T01:15:15.776Z,9.33
2022-09-21T01:17:40.844Z,9.40
2022-09-21T01:20:11.411Z,9.57
2022-09-21T01:22:37.012Z,9.17
2022-09-21T01:25:05.287Z,10.27
2022-09-21T01:27:41.863Z,10.13
2022-09-21T01:30:06.769Z,10.07
2022-09-21T01:32:29.588Z,9.57
2022-09-21T01:34:54.100Z,11.03
2022-09-21T01:37:18.461Z,10.10
2022-09-21T01:39:41.245Z,9.80
2022-09-21T01:42:03.421Z,11.03
2022-09-21T01:44:25.982Z,9.80
2022-09-21T01:46:48.681Z,9.70
2022-09-21T01:49:12.126Z,9.40
2022-09-21T01:51:34.483Z,9.47
2022-09-21T01:53:57.313Z,9.50
2022-09-21T01:56:20.847Z,12.03
2022-09-21T01:58:44.591Z,10.57
2022-09-21T02:01:07.621Z,9.77
2022-09-21T02:03:31.961Z,9.17
2022-09-21T02:05:53.032Z,9.37
2022-09-21T02:08:14.525Z,10.00
2022-09-21T02:10:37.425Z,11.23
2022-09-21T02:13:01.663Z,10.67
2022-09-21T02:15:27.524Z,9.57
2022-09-21T02:17:54.561Z,10.57
2022-09-21T02:20:19.740Z,9.47
2022-09-21T02:22:44.859Z,9.57
2022-09-21T02:25:08.317Z,10.10
2022-09-21T02:27:33.215Z,10.17
2022-09-21T02:29:56.399Z,9.60
2022-09-21T02:32:24.399Z,9.87
2022-09-21T02:34:47.168Z,9.97
2022-09-21T02:37:12.024Z,10.07
2022-09-21T02:39:36.398Z,10.20
2022-09-21T02:42:02.981Z,9.33
2022-09-21T02:44:26.040Z,10.17
2022-09-21T02:46:49.237Z,9.37
2022-09-21T02:49:14.563Z,11.43
2022-09-21T02:51:38.056Z,10.93
2022-09-21T02:54:02.682Z,10.57
2022-09-21T02:56:23.977Z,9.73
2022-09-21T02:58:48.807Z,9.80
2022-09-21T03:01:11.884Z,9.60
2022-09-21T03:03:33.154Z,10.17
2022-09-21T03:05:55.574Z,9.83
2022-09-21T03:08:16.990Z,9.47
2022-09-21T03:10:40.647Z,11.33
2022-09-21T03:13:01.950Z,9.27
2022-09-21T03:15:23.191Z,9.73
2022-09-21T03:17:44.520Z,9.37
2022-09-21T03:20:06.065Z,9.93
2022-09-21T03:22:27.562Z,9.30
2022-09-21T03:24:48.920Z,11.10
2022-09-21T03:27:11.433Z,10.70
2022-09-21T03:29:33.042Z,11.63
2022-09-21T03:31:56.027Z,10.27
2022-09-21T03:34:17.151Z,10.47
2022-09-21T03:36:38.446Z,10.67
2022-09-21T03:38:59.837Z,10.10
2022-09-21T03:41:21.183Z,11.17
2022-09-21T03:43:43.873Z,10.40
2022-09-21T03:46:05.220Z,10.30
2022-09-21T03:48:26.304Z,9.33
2022-09-21T03:50:47.216Z,9.73
2022-09-21T03:53:09.182Z,10.83
2022-09-21T03:55:31.171Z,10.33
2022-09-21T03:57:52.299Z,10.47
2022-09-21T04:00:15.749Z,10.53
2022-09-21T04:02:37.544Z,10.20
2022-09-21T04:04:59.297Z,10.10
2022-09-21T04:07:20.491Z,9.40
2022-09-21T04:09:41.784Z,9.50
2022-09-21T04:12:03.512Z,11.33
2022-09-21T04:14:24.872Z,12.33
2022-09-21T04:16:47.271Z,10.20
2022-09-21T04:19:08.185Z,10.03
2022-09-21T04:21:29.935Z,10.13
2022-09-21T04:23:50.943Z,9.90
2022-09-21T04:26:20.779Z,9.87
2022-09-21T04:28:42.237Z,9.77
2022-09-21T04:31:03.858Z,11.27
2022-09-21T04:33:26.214Z,10.57
2022-09-21T04:35:48.159Z,10.87
2022-09-21T04:38:09.201Z,10.43
2022-09-21T04:40:31.050Z,10.20
2022-09-21T04:42:52.372Z,10.37
2022-09-21T04:45:13.793Z,10.73
2022-09-21T04:47:34.866Z,8.97
2022-09-21T04:49:57.536Z,10.37
2022-09-21T04:52:19.321Z,11.23
2022-09-21T04:54:41.002Z,10.67
2022-09-21T04:57:02.378Z,10.33
2022-09-21T04:59:24.077Z,11.10
2022-09-21T05:01:45.460Z,11.37
2022-09-21T05:04:06.824Z,10.80
2022-09-21T05:06:29.920Z,10.47
2022-09-21T05:09:08.765Z,9.87
2022-09-21T05:11:30.129Z,9.93
2022-09-21T05:13:51.704Z,9.63
2022-09-21T05:16:12.908Z,9.80
2022-09-21T05:18:34.180Z,9.70
2022-09-21T05:20:56.087Z,9.67
2022-09-21T05:23:18.819Z,9.20
2022-09-21T05:25:39.985Z,9.93
2022-09-21T05:28:01.632Z,9.67
2022-09-21T05:30:23.400Z,9.83
2022-09-21T05:32:47.012Z,9.80
2022-09-21T05:35:11.901Z,8.67
2022-09-21T05:37:46.630Z,8.93
2022-09-21T05:40:11.062Z,8.93
2022-09-21T05:42:32.668Z,8.43
2022-09-21T05:44:55.279Z,8.93
2022-09-21T05:47:23.131Z,10.30
2022-09-21T05:49:49.301Z,9.87
2022-09-21T05:52:13.012Z,9.07
2022-09-21T05:54:43.681Z,8.70
2022-09-21T05:57:09.103Z,9.40
2022-09-21T05:59:37.377Z,10.37
2022-09-21T06:02:00.822Z,8.83
2022-09-21T06:04:21.875Z,9.40
2022-09-21T06:06:42.773Z,8.70
2022-09-21T06:09:04.151Z,8.53
2022-09-21T06:11:25.647Z,9.30
2022-09-21T06:13:48.024Z,10.77
2022-09-21T06:16:09.468Z,9.47
2022-09-21T06:18:31.262Z,8.87
2022-09-21T06:20:52.973Z,9.83
2022-09-21T06:23:15.913Z,9.70
2022-09-21T06:25:37.569Z,9.43
2022-09-21T06:28:03.079Z,10.00
2022-09-21T06:30:25.603Z,9.87
2022-09-21T06:32:46.508Z,13.70
2022-09-21T06:35:08.262Z,10.13
2022-09-21T06:37:30.027Z,10.17
2022-09-21T06:39:51.212Z,9.87
2022-09-21T06:42:12.466Z,9.83
2022-09-21T06:44:34.036Z,9.17
2022-09-21T06:46:56.626Z,9.73
2022-09-21T06:49:17.715Z,9.80
2022-09-21T06:51:39.276Z,9.30
2022-09-21T06:54:01.262Z,9.93
2022-09-21T06:56:22.549Z,10.07
2022-09-21T06:58:43.855Z,9.63
2022-09-21T07:01:05.769Z,9.67
2022-09-21T07:03:28.230Z,10.47
2022-09-21T07:05:49.707Z,10.37
2022-09-21T07:10:05.139Z,9.37
2022-09-21T07:10:52.243Z,11.17
2022-09-21T07:13:13.910Z,9.37
2022-09-21T07:15:35.151Z,8.63
2022-09-21T07:18:05.285Z,8.67
2022-09-21T07:20:28.464Z,11.03
2022-09-21T07:22:49.632Z,8.70
2022-09-21T07:25:11.410Z,7.57
2022-09-21T07:27:33.615Z,8.10
2022-09-21T07:29:54.616Z,8.37
2022-09-21T07:32:16.349Z,8.17
2022-09-21T07:34:38.412Z,7.80
2022-09-21T07:37:01.300Z,7.97
2022-09-21T07:39:22.388Z,7.40
2022-09-21T07:41:43.804Z,7.40
2022-09-21T07:44:05.465Z,7.20
2022-09-21T07:46:26.671Z,8.20
2022-09-21T07:48:50.701Z,7.33
2022-09-21T07:51:13.243Z,9.23
2022-09-21T07:53:36.004Z,7.23
2022-09-21T07:56:01.516Z,6.77
2022-09-21T07:58:40.344Z,7.17
2022-09-21T08:01:06.113Z,7.80
2022-09-21T08:03:27.379Z,11.77
2022-09-21T08:05:48.954Z,7.47
2022-09-21T08:08:10.659Z,6.33
2022-09-21T08:10:33.882Z,6.40
2022-09-21T08:12:55.680Z,6.20
2022-09-21T08:15:43.935Z,6.73
2022-09-21T08:17:59.203Z,5.60
2022-09-21T08:20:21.836Z,7.00
2022-09-21T08:22:43.076Z,5.60
2022-09-21T08:25:04.852Z,5.47
2022-09-21T08:27:27.369Z,5.40
2022-09-21T08:29:48.433Z,5.20
2022-09-21T08:32:15.834Z,5.07
2022-09-21T08:34:44.362Z,5.10
2022-09-21T08:37:05.960Z,4.87
2022-09-21T08:39:26.989Z,4.73
2022-09-21T08:42:01.894Z,4.33
2022-09-21T08:44:25.778Z,6.23
2022-09-21T08:46:49.624Z,6.63
2022-09-21T08:49:14.351Z,4.23
2022-09-21T08:51:37.389Z,4.07
2022-09-21T08:54:01.600Z,6.00
2022-09-21T08:56:23.486Z,3.93
2022-09-21T08:58:44.628Z,5.03
2022-09-21T09:01:16.580Z,3.80
2022-09-21T09:03:55.796Z,3.53
2022-09-21T09:06:23.495Z,4.23
2022-09-21T09:09:02.476Z,3.43
2022-09-21T09:11:28.918Z,5.30
2022-09-21T09:14:02.385Z,3.07
2022-09-21T09:16:28.188Z,2.60
2022-09-21T09:18:52.271Z,2.13
2022-09-21T09:21:22.503Z,2.17
2022-09-21T09:23:48.950Z,2.90
2022-09-21T09:26:11.957Z,2.37
2022-09-21T09:28:35.234Z,2.00
2022-09-21T09:30:58.668Z,2.67
2022-09-21T09:33:22.955Z,2.50
2022-09-21T09:35:47.088Z,2.63
2022-09-21T09:38:13.299Z,1.80
2022-09-21T09:40:45.123Z,2.73
2022-09-21T09:43:11.336Z,1.50
2022-09-21T09:45:39.662Z,3.10
2022-09-21T09:48:07.799Z,2.53
2022-09-21T09:50:30.681Z,2.40
2022-09-21T09:52:54.327Z,1.70
2022-09-21T09:55:20.119Z,1.73
2022-09-21T09:57:41.049Z,2.03
2022-09-21T10:00:05.525Z,1.33
2022-09-21T10:02:27.387Z,2.10
2022-09-21T10:04:56.024Z,1.20
2022-09-21T10:07:20.497Z,1.50
2022-09-21T10:09:41.688Z,1.40
2022-09-21T10:12:09.505Z,1.30
2022-09-21T10:14:34.230Z,1.87
2022-09-21T10:16:56.844Z,1.50
2022-09-21T10:19:20.262Z,1.20
2022-09-21T10:21:45.071Z,1.50
2022-09-21T10:24:16.608Z,2.73
2022-09-21T10:26:40.045Z,1.27
2022-09-21T10:29:02.128Z,1.47
2022-09-21T10:31:24.292Z,0.97
2022-09-21T10:33:50.510Z,3.03
2022-09-21T10:36:22.941Z,1.17
2022-09-21T10:38:45.594Z,1.00
2022-09-21T10:41:08.207Z,1.10
2022-09-21T10:43:34.420Z,1.53
2022-09-21T10:45:57.958Z,1.40
2022-09-21T10:48:22.160Z,1.10
2022-09-21T10:50:44.541Z,1.17
2022-09-21T10:53:13.466Z,1.83
2022-09-21T10:55:40.834Z,1.30
2022-09-21T10:58:10.044Z,1.20
2022-09-21T11:00:35.531Z,1.47
2022-09-21T11:02:56.808Z,2.03
2022-09-21T11:05:21.260Z,1.17
2022-09-21T11:07:45.875Z,1.20
2022-09-21T11:10:11.401Z,3.20
2022-09-21T11:12:36.779Z,1.77
2022-09-21T11:15:03.071Z,1.30
2022-09-21T11:17:29.357Z,0.90
2022-09-21T11:19:53.520Z,1.63
2022-09-21T11:22:19.491Z,1.00
2022-09-21T11:24:47.362Z,1.10
2022-09-21T11:27:11.076Z,1.37
2022-09-21T11:29:35.242Z,1.23
2022-09-21T11:32:08.018Z,2.37
2022-09-21T11:34:43.076Z,1.17
2022-09-21T11:37:11.311Z,1.50
2022-09-21T11:39:38.897Z,1.20
2022-09-21T11:42:04.731Z,1.27
2022-09-21T11:44:34.920Z,1.30
2022-09-21T11:46:59.091Z,1.30
2022-09-21T11:49:28.360Z,1.20
2022-09-21T11:52:00.352Z,1.17
2022-09-21T11:54:39.096Z,2.73
2022-09-21T11:57:04.882Z,1.90
2022-09-21T11:59:31.780Z,1.20
2022-09-21T12:01:58.418Z,1.10
2022-09-21T12:04:29.793Z,1.10
2022-09-21T12:06:57.779Z,1.33
2022-09-21T12:09:33.660Z,1.13
2022-09-21T12:11:59.610Z,1.10
2022-09-21T12:14:23.820Z,1.27
2022-09-21T12:16:49.191Z,1.40
2022-09-21T12:19:15.339Z,1.30
2022-09-21T12:21:39.649Z,1.10
2022-09-21T12:24:04.298Z,1.27
2022-09-21T12:26:28.267Z,1.43
2022-09-21T12:28:51.797Z,1.43
2022-09-21T12:31:15.654Z,1.23
2022-09-21T12:33:40.319Z,1.80
2022-09-21T12:36:04.787Z,1.27
2022-09-21T12:38:30.267Z,1.10
2022-09-21T12:40:53.235Z,1.27
2022-09-21T12:43:23.256Z,1.27
2022-09-21T12:45:47.090Z,1.40
2022-09-21T12:48:11.799Z,1.10
2022-09-21T12:50:39.584Z,1.27
2022-09-21T12:53:00.711Z,1.33
2022-09-21T12:55:29.348Z,1.20
2022-09-21T12:58:14.037Z,1.17
2022-09-21T13:00:39.529Z,1.80
2022-09-21T13:03:08.352Z,2.83
2022-09-21T13:05:37.573Z,1.13
2022-09-21T13:08:04.767Z,1.63
2022-09-21T13:10:39.005Z,1.10
2022-09-21T13:13:02.058Z,1.20
2022-09-21T13:15:27.128Z,1.63
2022-09-21T13:17:57.853Z,1.00
2022-09-21T13:20:20.478Z,1.60
2022-09-21T13:22:42.157Z,4.93
2022-09-21T13:25:06.131Z,43.70
2022-09-21T13:27:54.811Z,3.53
2022-09-21T13:30:22.726Z,6.10
2022-09-21T13:32:52.932Z,2.07
2022-09-21T13:35:33.029Z,2.77
2022-09-21T13:38:09.916Z,1.90
2022-09-21T13:40:34.971Z,1.00
2022-09-21T13:43:11.103Z,1.00
2022-09-21T13:45:53.154Z,1.10
2022-09-21T13:48:19.518Z,1.00
2022-09-21T13:50:42.867Z,1.13
2022-09-21T13:53:06.107Z,1.07
2022-09-21T13:55:29.128Z,1.07
2022-09-21T13:57:51.707Z,1.13
2022-09-21T14:00:30.832Z,1.00
2022-09-21T14:02:58.236Z,0.90
2022-09-21T14:05:25.341Z,1.20
2022-09-21T14:07:47.010Z,1.57
2022-09-21T14:10:10.067Z,1.63
2022-09-21T14:12:34.836Z,1.50
2022-09-21T14:15:31.704Z,1.00
2022-09-21T14:18:08.247Z,1.03
2022-09-21T14:20:35.833Z,1.20
2022-09-21T14:23:13.770Z,1.77
2022-09-21T14:25:56.506Z,1.00
2022-09-21T14:28:19.676Z,1.07
2022-09-21T14:30:41.587Z,2.03
2022-09-21T14:33:08.365Z,1.20
2022-09-21T14:35:33.760Z,1.70
2022-09-21T14:37:56.923Z,1.50
2022-09-21T14:40:19.891Z,1.00
2022-09-21T14:42:43.365Z,1.00
2022-09-21T14:45:04.860Z,1.00
2022-09-21T14:47:40.766Z,1.60
2022-09-21T14:50:19.200Z,1.00
2022-09-21T14:52:46.594Z,1.10
2022-09-21T14:55:15.703Z,1.00
2022-09-21T14:57:44.257Z,1.00
2022-09-21T15:00:20.965Z,1.10
2022-09-21T15:02:43.538Z,1.10
2022-09-21T15:05:19.369Z,0.97
2022-09-21T15:08:04.054Z,1.00
2022-09-21T15:10:44.184Z,1.17
2022-09-21T15:13:11.487Z,1.10
2022-09-21T15:15:41.371Z,1.70
2022-09-21T15:18:04.034Z,1.00
2022-09-21T15:20:25.322Z,0.90
2022-09-21T15:22:47.939Z,1.10
2022-09-21T15:25:13.117Z,0.97
2022-09-21T15:27:35.914Z,1.07
2022-09-21T15:29:57.612Z,1.20
2022-09-21T15:32:25.405Z,1.00
2022-09-21T15:34:46.586Z,1.10
2022-09-21T15:37:09.556Z,2.10
2022-09-21T15:39:32.603Z,2.80
2022-09-21T15:42:08.846Z,1.20
2022-09-21T15:44:33.535Z,1.30
2022-09-21T15:47:00.116Z,2.77
2022-09-21T15:49:21.859Z,1.10
2022-09-21T15:51:45.690Z,1.00
2022-09-21T15:54:09.199Z,3.67
2022-09-21T15:56:32.001Z,1.13
2022-09-21T15:58:59.205Z,1.07
2022-09-21T16:01:23.593Z,1.40
2022-09-21T16:03:44.677Z,2.00
2022-09-21T16:06:18.361Z,1.20
2022-09-21T16:08:39.830Z,1.37
2022-09-21T16:11:15.165Z,1.07
2022-09-21T16:13:55.300Z,1.53
2022-09-21T16:16:16.528Z,1.73
2022-09-21T16:18:43.106Z,1.00
2022-09-21T16:21:09.312Z,1.50
2022-09-21T16:23:31.009Z,1.87
2022-09-21T16:26:02.090Z,1.20
2022-09-21T16:28:44.633Z,1.30
2022-09-21T16:31:29.887Z,1.30
2022-09-21T16:34:01.690Z,1.27
2022-09-21T16:36:37.940Z,1.40
2022-09-21T16:39:00.026Z,1.10
2022-09-21T16:41:21.371Z,1.47
2022-09-21T16:43:43.579Z,1.33
2022-09-21T16:46:06.064Z,1.30
2022-09-21T16:48:28.417Z,1.20
2022-09-21T16:50:53.847Z,1.17
2022-09-21T16:53:15.268Z,1.23
2022-09-21T16:55:36.232Z,1.20
2022-09-21T16:57:57.450Z,1.30
2022-09-21T17:00:21.863Z,1.37
2022-09-21T17:02:45.195Z,2.63
2022-09-21T17:05:08.182Z,1.93
2022-09-21T17:07:29.457Z,1.50
2022-09-21T17:09:51.159Z,1.27
2022-09-21T17:12:15.015Z,1.30
2022-09-21T17:14:36.724Z,1.57
2022-09-21T17:16:58.388Z,1.77
2022-09-21T17:19:20.372Z,1.70
2022-09-21T17:21:42.776Z,1.60
2022-09-21T17:24:03.744Z,1.70
2022-09-21T17:26:25.160Z,2.37
2022-09-21T17:28:46.476Z,2.93
2022-09-21T17:31:09.430Z,1.63
2022-09-21T17:33:30.468Z,3.07
2022-09-21T17:35:53.100Z,1.80
2022-09-21T17:38:15.879Z,2.37
2022-09-21T17:40:37.597Z,2.00
2022-09-21T17:43:11.910Z,2.00
2022-09-21T17:45:38.666Z,1.77
2022-09-21T17:48:00.416Z,2.33
2022-09-21T17:50:24.094Z,3.90
2022-09-21T17:53:03.648Z,3.17
2022-09-21T17:55:26.719Z,1.93
2022-09-21T17:57:59.091Z,1.70
2022-09-21T18:00:22.147Z,3.13
2022-09-21T18:02:43.776Z,1.70
2022-09-21T18:05:11.018Z,3.37
2022-09-21T18:07:32.549Z,1.90
2022-09-21T18:09:54.407Z,2.13
2022-09-21T18:12:35.885Z,1.30
2022-09-21T18:15:03.291Z,2.40
2022-09-21T18:17:33.876Z,1.87
2022-09-21T18:20:03.775Z,1.87
2022-09-21T18:22:31.500Z,1.90
2022-09-21T18:24:52.923Z,2.47
2022-09-21T18:27:14.444Z,2.43
2022-09-21T18:29:39.862Z,3.47
2022-09-21T18:32:10.412Z,3.73
2022-09-21T18:34:43.396Z,4.40
2022-09-21T18:37:11.967Z,5.53
2022-09-21T18:39:37.091Z,5.00
2022-09-21T18:42:06.845Z,4.97
2022-09-21T18:44:31.736Z,5.30
2022-09-21T18:46:57.584Z,6.07
2022-09-21T18:49:26.888Z,5.20
2022-09-21T18:51:52.846Z,6.90
2022-09-21T18:54:18.805Z,6.00
2022-09-21T18:56:40.113Z,7.23
2022-09-21T18:59:02.041Z,8.13
2022-09-21T19:01:23.897Z,6.27
2022-09-21T19:03:45.728Z,3.90
2022-09-21T19:06:22.169Z,5.33
2022-09-21T19:08:47.219Z,4.63
2022-09-21T19:11:13.175Z,5.30
2022-09-21T19:13:40.059Z,4.73
2022-09-21T19:16:04.834Z,4.53
2022-09-21T19:18:32.207Z,6.57
2022-09-21T19:21:00.027Z,4.30
2022-09-21T19:23:28.081Z,4.53
2022-09-21T19:25:53.242Z,5.93
2022-09-21T19:28:21.741Z,7.57
2022-09-21T19:30:43.359Z,8.83
2022-09-21T19:33:08.993Z,7.90
2022-09-21T19:35:30.667Z,7.67
2022-09-21T19:37:53.322Z,6.43
2022-09-21T19:40:14.636Z,7.23
2022-09-21T19:42:42.104Z,8.47
2022-09-21T19:45:07.884Z,7.70
2022-09-21T19:47:30.292Z,7.97
2022-09-21T19:49:53.912Z,6.77
2022-09-21T19:52:17.264Z,8.80
2022-09-21T19:54:56.132Z,8.03
2022-09-21T19:57:35.573Z,7.10
2022-09-21T19:59:58.533Z,6.80
2022-09-21T20:02:28.601Z,6.40
2022-09-21T20:04:55.752Z,7.57
2022-09-21T20:07:20.145Z,8.50
2022-09-21T20:09:44.819Z,5.17
2022-09-21T20:12:09.292Z,5.73
2022-09-21T20:14:33.877Z,5.50
2022-09-21T20:17:00.724Z,5.93
2022-09-21T20:19:26.645Z,5.87
2022-09-21T20:21:49.274Z,5.70
2022-09-21T20:24:19.131Z,7.10
2022-09-21T20:26:40.485Z,5.03
2022-09-21T20:29:02.445Z,5.93
2022-09-21T20:31:25.436Z,4.80
2022-09-21T20:33:48.195Z,4.60
2022-09-21T20:36:10.066Z,6.10
2022-09-21T20:38:32.016Z,7.73
2022-09-21T20:40:54.137Z,11.03
2022-09-21T20:43:15.645Z,8.73
2022-09-21T20:45:36.928Z,5.03
2022-09-21T20:48:12.952Z,5.23
2022-09-21T20:50:36.780Z,7.00
2022-09-21T20:52:58.237Z,5.90
2022-09-21T20:55:20.300Z,7.07
2022-09-21T20:57:41.751Z,5.53
2022-09-21T21:00:03.321Z,6.33
2022-09-21T21:02:24.516Z,9.13
2022-09-21T21:04:45.762Z,9.97
2022-09-21T21:07:08.368Z,7.97
2022-09-21T21:09:29.568Z,5.80
2022-09-21T21:11:51.595Z,7.00
2022-09-21T21:14:12.564Z,6.23
2022-09-21T21:16:33.877Z,6.40
2022-09-21T21:18:55.174Z,6.60
2022-09-21T21:21:16.383Z,6.60
2022-09-21T21:23:52.811Z,6.30
2022-09-21T21:26:13.744Z,6.27
2022-09-21T21:28:34.976Z,5.70
2022-09-21T21:30:56.838Z,6.20
2022-09-21T21:33:17.986Z,6.23
2022-09-21T21:35:39.409Z,5.77
2022-09-21T21:38:00.762Z,5.50
2022-09-21T21:40:25.830Z,5.70
2022-09-21T21:42:47.116Z,5.57
2022-09-21T21:45:09.866Z,6.03
2022-09-21T21:47:46.140Z,6.37
2022-09-21T21:50:07.515Z,10.03
2022-09-21T21:52:28.707Z,5.87
2022-09-21T21:54:50.013Z,5.73
2022-09-21T21:57:13.997Z,5.67
2022-09-21T21:59:35.552Z,6.83
2022-09-21T22:01:56.910Z,5.07
2022-09-21T22:04:18.391Z,6.70
2022-09-21T22:06:40.303Z,7.13
2022-09-21T22:09:01.591Z,6.33
2022-09-21T22:11:24.377Z,6.23
2022-09-21T22:13:47.002Z,6.07
2022-09-21T22:16:09.339Z,6.10
2022-09-21T22:18:30.941Z,7.80
2022-09-21T22:20:52.335Z,6.43
2022-09-21T22:23:13.432Z,7.77
2022-09-21T22:25:34.465Z,6.47
2022-09-21T22:27:56.030Z,6.83
2022-09-21T22:30:18.414Z,7.40
2022-09-21T22:32:39.428Z,7.23
2022-09-21T22:35:00.638Z,7.00
2022-09-21T22:37:22.062Z,6.97
2022-09-21T22:39:43.704Z,7.40
2022-09-21T22:42:05.105Z,7.57
2022-09-21T22:44:26.068Z,7.43
2022-09-21T22:46:48.758Z,7.53
2022-09-21T22:49:10.183Z,11.60
2022-09-21T22:51:31.826Z,7.03
2022-09-21T22:53:52.912Z,6.90
2022-09-21T22:56:15.056Z,7.70
2022-09-21T22:58:37.272Z,7.50
2022-09-21T23:01:05.951Z,8.33
2022-09-21T23:03:28.368Z,7.20
2022-09-21T23:05:56.313Z,7.40
2022-09-21T23:08:17.450Z,7.40
2022-09-21T23:10:38.734Z,7.17
2022-09-21T23:12:59.999Z,7.90
2022-09-21T23:15:21.434Z,10.83
2022-09-21T23:17:42.692Z,9.73
2022-09-21T23:20:05.498Z,9.17
2022-09-21T23:22:26.867Z,8.37
2022-09-21T23:24:48.253Z,7.60
2022-09-21T23:27:09.577Z,8.57
2022-09-21T23:29:30.848Z,8.60
2022-09-21T23:31:52.107Z,7.60
2022-09-21T23:34:13.485Z,9.07
2022-09-21T23:36:36.809Z,8.40
2022-09-21T23:38:58.099Z,7.67
2022-09-21T23:41:20.212Z,7.93
2022-09-21T23:43:41.991Z,8.07
2022-09-21T23:46:03.706Z,7.73
2022-09-21T23:48:24.819Z,7.67
2022-09-21T23:50:46.165Z,7.83
2022-09-21T23:53:09.239Z,8.30
2022-09-21T23:55:30.947Z,9.57
2022-09-21T23:57:52.243Z,8.80
